Time;durP1;ratioP1;P1;durP2;ratioP2;P2;SDS_P1;SDS_P2;PMS_P1;PMS_P2;Temp;Humidity;BMP_temperature;BMP_pressure;BME280_temperature;BME280_humidity;BME280_pressure;Samples;Min_cycle;Max_cycle;Signal;HPM_P1;HPM_P2
2023/02/18 00:02:12;;;;;;;3.88;2.45;;;11.50;90.00;;;;;;4926836;29;20213;-83
2023/02/18 00:04:40;;;;;;;3.22;2.40;;;11.40;90.30;;;;;;4931519;29;20218;-83
2023/02/18 00:07:07;;;;;;;3.78;2.22;;;11.40;90.60;;;;;;4932190;29;20221;-83
2023/02/18 00:09:34;;;;;;;4.78;2.38;;;11.40;90.60;;;;;;4932109;29;20221;-84
2023/02/18 00:12:01;;;;;;;3.33;2.40;;;11.40;90.60;;;;;;4935710;29;20202;-83
2023/02/18 00:14:28;;;;;;;2.60;2.20;;;11.40;90.60;;;;;;4931783;29;20214;-83
2023/02/18 00:16:54;;;;;;;5.25;2.65;;;11.40;90.60;;;;;;4934398;29;20213;-83
2023/02/18 00:19:22;;;;;;;5.13;2.40;;;11.30;90.60;;;;;;4932110;29;20206;-84
2023/02/18 00:21:50;;;;;;;3.75;2.30;;;11.40;90.60;;;;;;4931824;29;20230;-83
2023/02/18 00:24:17;;;;;;;3.25;2.40;;;11.30;90.60;;;;;;4935200;29;20221;-84
2023/02/18 00:26:44;;;;;;;3.03;2.50;;;11.30;90.90;;;;;;4933680;29;20287;-85
2023/02/18 00:29:11;;;;;;;3.42;2.58;;;11.30;90.90;;;;;;4934936;29;20269;-83
2023/02/18 00:31:40;;;;;;;3.83;2.20;;;11.20;91.00;;;;;;4936743;29;20684;-84
2023/02/18 00:34:16;;;;;;;3.85;2.08;;;11.20;91.20;;;;;;4934512;29;20198;-85
2023/02/18 00:36:43;;;;;;;2.85;2.05;;;11.20;91.20;;;;;;4933677;29;20309;-84
2023/02/18 00:39:12;;;;;;;2.30;2.10;;;11.20;91.50;;;;;;4936349;29;20205;-83
2023/02/18 00:41:39;;;;;;;4.93;2.30;;;11.20;91.50;;;;;;4935912;29;20198;-84
2023/02/18 00:44:06;;;;;;;3.72;1.83;;;11.20;91.60;;;;;;4935915;29;20217;-83
2023/02/18 00:46:34;;;;;;;2.50;1.95;;;11.10;91.60;;;;;;4935835;29;20202;-84
2023/02/18 00:49:01;;;;;;;2.92;2.08;;;11.10;91.80;;;;;;4933890;29;20202;-83
2023/02/18 00:51:28;;;;;;;3.60;1.92;;;11.00;92.20;;;;;;4937880;29;20564;-83
2023/02/18 00:53:56;;;;;;;2.20;1.98;;;11.00;92.50;;;;;;4929528;29;20213;-83
2023/02/18 00:56:24;;;;;;;3.00;2.20;;;11.00;92.30;;;;;;4931619;29;20700;-83
2023/02/18 00:58:52;;;;;;;2.13;1.92;;;11.00;92.40;;;;;;4932031;29;20666;-85
2023/02/18 01:01:19;;;;;;;3.25;2.10;;;10.90;92.50;;;;;;4933866;29;20205;-84
2023/02/18 01:03:46;;;;;;;1.90;1.80;;;10.90;92.70;;;;;;4931798;29;20229;-83
2023/02/18 01:06:13;;;;;;;2.45;1.83;;;10.90;92.80;;;;;;4933927;29;20234;-83
2023/02/18 01:08:41;;;;;;;3.88;1.83;;;10.80;93.10;;;;;;4933131;29;20261;-83
2023/02/18 01:11:10;;;;;;;4.20;2.10;;;10.80;93.10;;;;;;4929585;29;20678;-83
2023/02/18 01:13:39;;;;;;;5.45;3.25;;;10.70;93.20;;;;;;4934663;29;20222;-83
2023/02/18 01:16:06;;;;;;;3.70;1.70;;;10.90;93.50;;;;;;4930615;29;20214;-83
2023/02/18 01:18:33;;;;;;;2.30;2.10;;;10.90;93.30;;;;;;4933519;29;20296;-82
2023/02/18 01:21:01;;;;;;;2.50;2.28;;;11.00;93.30;;;;;;4935962;29;20212;-83
2023/02/18 01:23:28;;;;;;;3.10;2.42;;;11.00;93.30;;;;;;4938094;29;20232;-82
2023/02/18 01:25:57;;;;;;;2.78;2.22;;;11.00;93.50;;;;;;4944856;29;20236;-83
2023/02/18 01:28:24;;;;;;;4.25;2.70;;;11.00;93.40;;;;;;4933685;29;20205;-84
2023/02/18 01:30:53;;;;;;;2.50;2.30;;;11.00;93.40;;;;;;4936102;29;20205;-86
2023/02/18 01:33:20;;;;;;;2.63;2.10;;;11.00;93.50;;;;;;4933154;29;20209;-83
2023/02/18 01:35:48;;;;;;;3.90;2.53;;;11.00;93.60;;;;;;4933716;29;20209;-83
2023/02/18 01:38:15;;;;;;;3.25;2.20;;;11.00;93.60;;;;;;4934746;29;20202;-83
2023/02/18 01:40:50;;;;;;;2.95;2.40;;;11.00;93.70;;;;;;4934790;29;20218;-87
2023/02/18 01:43:17;;;;;;;3.47;2.70;;;10.90;94.00;;;;;;4928280;29;20872;-83
2023/02/18 01:46:03;;;;;;;4.40;2.60;;;11.00;94.00;;;;;;4937497;29;20225;-84
2023/02/18 01:48:34;;;;;;;16.40;11.05;;;11.00;94.10;;;;;;4931194;29;20197;-83
2023/02/18 01:51:06;;;;;;;5.45;3.97;;;11.00;94.10;;;;;;4929628;29;20198;-83
2023/02/18 01:53:38;;;;;;;4.80;3.97;;;10.90;94.30;;;;;;4931947;29;20209;-83
2023/02/18 01:56:09;;;;;;;3.22;2.50;;;10.90;94.50;;;;;;4930448;29;20209;-83
2023/02/18 01:58:36;;;;;;;4.20;3.42;;;11.00;94.40;;;;;;4932658;29;20198;-83
2023/02/18 02:01:05;;;;;;;3.33;2.60;;;11.00;94.50;;;;;;4932598;29;20244;-83
2023/02/18 02:03:32;;;;;;;3.33;2.85;;;11.20;93.90;;;;;;4930951;29;20205;-84
2023/02/18 02:06:00;;;;;;;5.60;3.13;;;11.20;93.80;;;;;;4930238;29;20230;-83
2023/02/18 02:08:27;;;;;;;6.00;2.60;;;11.20;93.70;;;;;;4927672;29;20207;-83
2023/02/18 02:11:08;;;;;;;3.83;2.55;;;11.30;93.60;;;;;;4929841;29;20217;-83
2023/02/18 02:13:51;;;;;;;3.25;2.55;;;11.20;93.70;;;;;;4934482;29;20206;-83
2023/02/18 02:16:27;;;;;;;2.92;2.38;;;11.30;93.30;;;;;;4923124;29;20212;-83
2023/02/18 02:19:04;;;;;;;3.70;2.67;;;11.30;93.30;;;;;;4933056;29;20669;-83
2023/02/18 02:22:24;;;;;;;3.80;2.35;;;11.30;93.30;;;;;;4931058;29;20232;-83
2023/02/18 02:25:03;;;;;;;3.38;2.50;;;11.30;93.30;;;;;;4930963;29;20725;-83
2023/02/18 02:27:54;;;;;;;3.25;2.25;;;11.30;93.30;;;;;;4929203;29;20198;-84
2023/02/18 02:30:47;;;;;;;2.42;2.10;;;11.40;93.10;;;;;;4941872;28;20202;-84
2023/02/18 02:33:56;;;;;;;2.33;2.08;;;11.40;92.90;;;;;;4931348;29;20205;-83
2023/02/18 02:36:29;;;;;;;4.68;2.20;;;11.50;93.00;;;;;;4924156;29;20209;-84
2023/02/18 02:39:04;;;;;;;2.25;2.00;;;11.50;92.90;;;;;;4932565;29;20197;-84
2023/02/18 02:41:43;;;;;;;2.55;1.90;;;11.50;93.20;;;;;;4931780;29;20198;-83
2023/02/18 02:44:19;;;;;;;2.28;1.80;;;11.50;92.90;;;;;;4931123;29;20204;-83
2023/02/18 02:46:48;;;;;;;3.60;2.13;;;11.50;93.00;;;;;;4938516;28;20229;-83
2023/02/18 02:49:33;;;;;;;2.00;1.80;;;11.50;93.20;;;;;;4932801;29;20242;-84
2023/02/18 02:52:07;;;;;;;3.15;1.80;;;11.50;93.20;;;;;;4931731;29;20208;-83
2023/02/18 02:54:35;;;;;;;1.88;1.60;;;11.40;93.40;;;;;;4934052;29;20201;-83
2023/02/18 02:57:08;;;;;;;2.33;2.00;;;11.40;93.60;;;;;;4931644;29;20230;-83
2023/02/18 02:59:37;;;;;;;2.03;1.77;;;11.50;93.60;;;;;;4931178;29;20600;-85
2023/02/18 03:02:21;;;;;;;2.95;1.65;;;11.50;93.70;;;;;;4930855;29;20206;-89
2023/02/18 03:05:03;;;;;;;1.75;1.63;;;11.40;93.90;;;;;;4934100;29;20579;-83
2023/02/18 03:07:53;;;;;;;1.70;1.60;;;11.40;94.30;;;;;;4928927;29;20564;-83
2023/02/18 03:10:48;;;;;;;2.50;1.60;;;11.40;94.10;;;;;;4929485;29;20658;-83
2023/02/18 03:13:26;;;;;;;1.75;1.48;;;11.40;94.20;;;;;;4931561;29;20285;-85
2023/02/18 03:15:57;;;;;;;1.75;1.65;;;11.50;93.90;;;;;;4933874;29;20209;-83
2023/02/18 03:18:30;;;;;;;1.92;1.50;;;11.50;94.00;;;;;;4930347;29;20556;-83
2023/02/18 03:21:01;;;;;;;1.50;1.40;;;11.50;93.80;;;;;;4930898;29;20201;-84
2023/02/18 03:23:34;;;;;;;2.17;1.30;;;11.50;93.80;;;;;;4934118;29;20241;-83
2023/02/18 03:26:04;;;;;;;2.30;1.58;;;11.50;93.90;;;;;;4933331;29;20222;-83
2023/02/18 03:28:31;;;;;;;2.53;1.40;;;11.50;94.00;;;;;;4934273;29;20202;-83
2023/02/18 03:31:02;;;;;;;2.08;1.45;;;11.50;93.70;;;;;;4947163;28;20209;-83
2023/02/18 03:33:33;;;;;;;1.95;1.25;;;11.50;93.80;;;;;;4933067;29;20208;-83
2023/02/18 03:36:01;;;;;;;1.50;1.40;;;11.50;93.90;;;;;;4931484;29;20646;-83
2023/02/18 03:38:35;;;;;;;2.35;1.27;;;11.50;93.90;;;;;;4934588;29;20205;-83
2023/02/18 03:41:01;;;;;;;1.95;1.50;;;11.50;93.90;;;;;;4934414;29;20957;-82
2023/02/18 03:43:29;;;;;;;1.90;1.40;;;11.50;94.00;;;;;;4935128;29;20561;-88
2023/02/18 03:45:56;;;;;;;2.05;1.70;;;11.50;94.00;;;;;;4931738;29;20230;-83
2023/02/18 03:48:23;;;;;;;2.42;1.42;;;11.50;94.00;;;;;;4928665;29;20203;-83
2023/02/18 03:50:50;;;;;;;2.03;1.60;;;11.50;93.80;;;;;;4927876;29;20202;-84
2023/02/18 03:53:17;;;;;;;1.58;1.35;;;11.40;93.90;;;;;;4937373;29;20297;-83
2023/02/18 03:55:45;;;;;;;1.67;1.58;;;11.40;93.90;;;;;;4938074;29;20217;-83
2023/02/18 03:58:12;;;;;;;3.05;1.45;;;11.50;93.80;;;;;;4937083;29;20546;-84
2023/02/18 04:00:39;;;;;;;1.60;1.50;;;11.50;93.70;;;;;;4937917;29;20206;-84
2023/02/18 04:03:06;;;;;;;1.75;1.40;;;11.50;93.70;;;;;;4937866;29;20686;-88
2023/02/18 04:05:33;;;;;;;1.50;1.40;;;11.40;93.80;;;;;;4928332;29;20735;-83
2023/02/18 04:08:00;;;;;;;2.72;1.52;;;11.50;93.90;;;;;;4936260;29;20217;-82
2023/02/18 04:10:27;;;;;;;1.95;1.60;;;11.40;93.90;;;;;;4937544;29;20294;-83
2023/02/18 04:12:55;;;;;;;2.75;1.80;;;11.50;93.70;;;;;;4935708;29;20573;-83
2023/02/18 04:15:22;;;;;;;2.10;1.60;;;11.50;93.80;;;;;;4935234;29;20217;-83
2023/02/18 04:17:49;;;;;;;2.33;1.70;;;11.40;93.80;;;;;;4934208;29;20205;-83
2023/02/18 04:20:16;;;;;;;1.88;1.55;;;11.40;94.00;;;;;;4939959;29;20213;-82
2023/02/18 04:22:43;;;;;;;1.70;1.60;;;11.40;94.00;;;;;;4936958;29;20602;-83
2023/02/18 04:25:10;;;;;;;1.92;1.83;;;11.40;94.00;;;;;;4937025;29;20646;-83
2023/02/18 04:27:37;;;;;;;1.90;1.70;;;11.40;93.90;;;;;;4932160;29;20198;-83
2023/02/18 04:30:07;;;;;;;2.63;1.50;;;11.50;93.70;;;;;;4925678;29;20202;-83
2023/02/18 04:32:35;;;;;;;2.00;1.60;;;11.50;93.60;;;;;;4934556;29;20194;-83
2023/02/18 04:35:02;;;;;;;1.85;1.70;;;11.50;93.40;;;;;;4940114;29;20206;-83
2023/02/18 04:37:29;;;;;;;1.75;1.65;;;11.50;93.40;;;;;;4935450;29;20283;-83
2023/02/18 04:39:55;;;;;;;2.35;1.70;;;11.40;93.50;;;;;;4935697;29;20210;-83
2023/02/18 04:42:23;;;;;;;2.17;1.98;;;11.40;93.50;;;;;;4936422;29;20654;-84
2023/02/18 04:44:49;;;;;;;1.73;1.60;;;11.30;93.50;;;;;;4934806;29;20213;-83
2023/02/18 04:47:19;;;;;;;1.60;1.50;;;11.30;93.80;;;;;;4931753;29;20226;-83
2023/02/18 04:49:46;;;;;;;1.88;1.67;;;11.30;93.40;;;;;;4936376;29;20288;-83
2023/02/18 04:52:13;;;;;;;2.08;1.77;;;11.30;93.50;;;;;;4935095;29;20202;-83
2023/02/18 04:54:40;;;;;;;1.70;1.48;;;11.30;93.50;;;;;;4937360;29;20198;-83
2023/02/18 04:57:06;;;;;;;2.08;1.40;;;11.30;93.30;;;;;;4936390;29;20206;-83
2023/02/18 04:59:33;;;;;;;1.75;1.63;;;11.30;93.30;;;;;;4936786;29;20202;-82
2023/02/18 05:02:00;;;;;;;1.65;1.45;;;11.30;93.20;;;;;;4931328;29;20205;-84
2023/02/18 05:04:29;;;;;;;2.00;1.40;;;11.30;93.10;;;;;;4936172;29;21181;-83
2023/02/18 05:06:56;;;;;;;1.70;1.60;;;11.30;93.10;;;;;;4931193;29;20277;-83
2023/02/18 05:09:23;;;;;;;3.78;1.60;;;11.30;93.10;;;;;;4935782;29;20213;-86
2023/02/18 05:11:50;;;;;;;1.60;1.33;;;11.20;93.30;;;;;;4936121;29;20213;-83
2023/02/18 05:14:17;;;;;;;1.52;1.40;;;11.20;93.30;;;;;;4934471;29;20198;-84
2023/02/18 05:16:44;;;;;;;1.60;1.50;;;11.20;93.30;;;;;;4936984;29;20202;-88
2023/02/18 05:19:14;;;;;;;1.45;1.35;;;11.20;93.30;;;;;;4930492;29;20540;-83
2023/02/18 05:21:43;;;;;;;2.30;1.38;;;11.30;92.90;;;;;;4932179;29;20572;-83
2023/02/18 05:24:10;;;;;;;1.50;1.40;;;11.30;92.80;;;;;;4934517;29;20203;-83
2023/02/18 05:26:37;;;;;;;1.30;1.20;;;11.30;92.70;;;;;;4936506;29;20233;-82
2023/02/18 05:29:04;;;;;;;1.30;1.20;;;11.30;92.70;;;;;;4933287;29;20206;-83
2023/02/18 05:31:31;;;;;;;1.55;1.45;;;11.20;92.70;;;;;;4933540;29;20213;-83
2023/02/18 05:33:58;;;;;;;1.48;1.10;;;11.30;92.30;;;;;;4926360;29;20545;-83
2023/02/18 05:36:25;;;;;;;1.00;0.90;;;11.30;92.30;;;;;;4931391;29;20209;-82
2023/02/18 05:38:53;;;;;;;1.30;1.20;;;11.30;92.10;;;;;;4933407;29;20217;-83
2023/02/18 05:41:20;;;;;;;1.00;1.00;;;11.30;92.00;;;;;;4928298;29;20210;-83
2023/02/18 05:46:32;;;;;;;1.17;1.08;;;11.30;91.90;;;;;;4925772;29;20229;-83
2023/02/18 05:48:59;;;;;;;1.10;1.00;;;11.30;91.90;;;;;;4933693;29;20202;-84
2023/02/18 05:51:26;;;;;;;0.80;0.80;;;11.30;91.80;;;;;;4932191;29;20584;-82
2023/02/18 05:53:55;;;;;;;0.80;0.80;;;11.30;91.70;;;;;;4931351;29;20565;-83
2023/02/18 05:56:22;;;;;;;0.82;0.82;;;11.30;91.70;;;;;;4934829;29;20198;-83
2023/02/18 05:58:48;;;;;;;0.85;0.85;;;11.40;91.50;;;;;;4930272;29;20202;-84
2023/02/18 06:01:15;;;;;;;0.80;0.80;;;11.40;91.20;;;;;;4934295;29;20204;-83
2023/02/18 06:03:42;;;;;;;1.25;1.10;;;11.40;91.00;;;;;;4926989;29;20206;-83
2023/02/18 06:06:09;;;;;;;1.40;0.93;;;11.40;91.00;;;;;;4934607;29;20598;-83
2023/02/18 06:08:36;;;;;;;0.80;0.80;;;11.30;91.00;;;;;;4933227;29;20218;-83
2023/02/18 06:11:04;;;;;;;0.98;0.88;;;11.30;91.00;;;;;;4927302;29;20249;-84
2023/02/18 06:13:31;;;;;;;0.80;0.80;;;11.40;90.70;;;;;;4932446;29;20209;-83
2023/02/18 06:15:58;;;;;;;0.90;0.88;;;11.40;90.90;;;;;;4933997;29;20273;-83
2023/02/18 06:18:25;;;;;;;1.27;0.95;;;11.40;90.60;;;;;;4936564;29;20666;-82
2023/02/18 06:20:52;;;;;;;0.90;0.90;;;11.30;90.60;;;;;;4932360;29;20257;-86
2023/02/18 06:23:19;;;;;;;0.80;0.70;;;11.40;90.60;;;;;;4933455;29;20608;-83
2023/02/18 06:25:49;;;;;;;0.85;0.85;;;11.40;90.60;;;;;;4936578;29;20237;-83
2023/02/18 06:28:17;;;;;;;3.00;1.00;;;11.40;90.60;;;;;;4933512;29;20194;-83
2023/02/18 06:30:44;;;;;;;0.80;0.80;;;11.40;90.60;;;;;;4935596;29;20261;-83
2023/02/18 06:33:11;;;;;;;1.40;0.90;;;11.40;90.60;;;;;;4930889;29;20203;-83
2023/02/18 06:35:38;;;;;;;0.70;0.70;;;11.40;90.60;;;;;;4932075;29;20221;-83
2023/02/18 06:38:05;;;;;;;0.98;0.80;;;11.40;90.60;;;;;;4930035;29;20547;-83
2023/02/18 06:40:32;;;;;;;1.23;0.80;;;11.40;90.60;;;;;;4931368;29;20205;-83
2023/02/18 06:43:00;;;;;;;0.63;0.60;;;11.40;90.60;;;;;;4928073;29;20650;-82
2023/02/18 06:45:28;;;;;;;0.70;0.70;;;11.50;90.00;;;;;;4935964;29;20681;-83
2023/02/18 06:47:55;;;;;;;0.80;0.80;;;11.50;90.20;;;;;;4933065;29;20233;-83
2023/02/18 06:50:22;;;;;;;0.80;0.80;;;11.50;89.60;;;;;;4929615;29;20544;-84
2023/02/18 06:52:49;;;;;;;0.80;0.80;;;11.50;88.90;;;;;;4931213;29;20194;-83
2023/02/18 06:55:16;;;;;;;0.80;0.80;;;11.50;89.00;;;;;;4937031;29;20642;-82
2023/02/18 06:57:43;;;;;;;1.75;0.90;;;11.50;88.90;;;;;;4932632;29;20213;-84
2023/02/18 07:00:11;;;;;;;2.38;0.80;;;11.60;88.10;;;;;;4930822;29;20661;-83
2023/02/18 07:02:39;;;;;;;0.90;0.90;;;11.60;87.90;;;;;;4930804;29;20213;-82
2023/02/18 07:05:06;;;;;;;0.75;0.75;;;11.60;87.70;;;;;;4920525;29;20213;-83
2023/02/18 07:07:34;;;;;;;0.90;0.90;;;11.60;87.70;;;;;;4924639;29;20226;-86
2023/02/18 07:10:02;;;;;;;1.40;0.90;;;11.70;87.50;;;;;;4931729;29;20541;-83
2023/02/18 07:12:29;;;;;;;2.35;0.80;;;11.70;87.10;;;;;;4928403;29;20210;-81
2023/02/18 07:14:55;;;;;;;0.93;0.93;;;11.70;86.80;;;;;;4928774;29;20653;-82
2023/02/18 07:17:22;;;;;;;1.00;1.00;;;11.80;85.20;;;;;;4927951;29;20217;-88
2023/02/18 07:19:51;;;;;;;0.80;0.80;;;11.70;85.50;;;;;;4933158;29;20217;-86
2023/02/18 07:22:18;;;;;;;0.77;0.60;;;11.80;85.00;;;;;;4931895;29;20317;-85
2023/02/18 07:24:45;;;;;;;1.98;0.80;;;11.80;85.00;;;;;;4929568;29;20579;-85
2023/02/18 07:27:12;;;;;;;1.75;0.70;;;11.80;84.70;;;;;;4937898;29;20221;-89
2023/02/18 07:30:31;;;;;;;1.13;0.80;;;11.80;83.60;;;;;;4938672;29;20206;-88
2023/02/18 07:33:06;;;;;;;0.70;0.70;;;11.90;83.80;;;;;;4930507;29;20559;-84
2023/02/18 07:35:34;;;;;;;1.15;0.88;;;11.90;83.30;;;;;;4937011;29;20233;-87
2023/02/18 07:38:02;;;;;;;1.08;0.85;;;11.90;82.70;;;;;;4935186;29;20206;-89
2023/02/18 07:40:29;;;;;;;0.93;0.70;;;12.00;81.70;;;;;;4930921;29;20197;-89
2023/02/18 07:42:56;;;;;;;0.68;0.68;;;11.90;82.40;;;;;;4933575;29;20233;-87
2023/02/18 07:45:23;;;;;;;4.78;0.70;;;11.90;82.30;;;;;;4930422;29;20199;-88
2023/02/18 07:47:50;;;;;;;0.82;0.77;;;11.90;82.30;;;;;;4934919;29;20625;-85
2023/02/18 07:50:17;;;;;;;0.70;0.70;;;11.80;82.90;;;;;;4932009;29;20225;-85
2023/02/18 07:52:45;;;;;;;0.90;0.80;;;11.80;83.10;;;;;;4934700;29;20202;-88
2023/02/18 07:55:12;;;;;;;0.52;0.52;;;11.80;83.20;;;;;;4937329;29;20202;-88
2023/02/18 07:57:56;;;;;;;1.15;0.82;;;11.80;83.60;;;;;;4946762;29;20533;-88
2023/02/18 08:00:23;;;;;;;0.85;0.70;;;11.80;84.00;;;;;;4937660;29;20642;-86
2023/02/18 08:02:50;;;;;;;0.85;0.77;;;11.80;83.90;;;;;;4934687;29;20650;-89
2023/02/18 08:05:17;;;;;;;0.90;0.90;;;11.80;83.80;;;;;;4931894;29;20674;-87
2023/02/18 08:10:30;;;;;;;1.17;0.70;;;11.80;84.50;;;;;;4937627;29;20565;-91
2023/02/18 08:12:57;;;;;;;0.70;0.70;;;11.80;85.10;;;;;;4941397;29;20296;-92
2023/02/18 08:15:25;;;;;;;0.93;0.70;;;11.80;84.50;;;;;;4940161;29;20206;-92
2023/02/18 08:26:31;;;;;;;1.40;1.10;;;12.00;82.60;;;;;;5984367;23;20184;-87
2023/02/18 08:28:58;;;;;;;1.40;0.80;;;12.10;81.80;;;;;;5001344;28;20198;-87
2023/02/18 08:31:27;;;;;;;1.63;0.98;;;12.10;81.70;;;;;;5019564;28;20561;-86
2023/02/18 08:33:55;;;;;;;1.02;0.70;;;12.10;80.80;;;;;;5022250;28;20204;-87
2023/02/18 08:36:23;;;;;;;1.48;0.82;;;12.10;80.60;;;;;;5019175;28;20207;-88
2023/02/18 08:38:50;;;;;;;1.30;0.80;;;12.10;80.90;;;;;;4981883;28;20598;-89
2023/02/18 08:41:20;;;;;;;1.33;0.80;;;12.10;80.90;;;;;;5016665;28;20191;-86
2023/02/18 08:46:30;;;;;;;1.08;0.98;;;12.20;80.50;;;;;;4989165;28;20278;-88
2023/02/18 08:48:57;;;;;;;1.73;1.15;;;12.40;80.00;;;;;;4996871;28;20215;-85
2023/02/18 08:51:25;;;;;;;0.60;0.60;;;12.50;78.70;;;;;;5000825;28;20211;-90
2023/02/18 08:53:52;;;;;;;1.55;0.90;;;12.70;78.30;;;;;;5015453;28;20549;-90
